sensor_id;sensor_type;location;lat;lon;timestamp;P1;durP1;ratioP1;P2;durP2;ratioP2
12042;SDS011;6082;49.306;12.862;2023-12-07T00:01:14;14.30;;;7.10;;
12042;SDS011;6082;49.306;12.862;2023-12-07T00:03:39;12.97;;;7.50;;
12042;SDS011;6082;49.306;12.862;2023-12-07T00:06:05;14.00;;;7.70;;
12042;SDS011;6082;49.306;12.862;2023-12-07T00:08:31;12.90;;;7.27;;
12042;SDS011;6082;49.306;12.862;2023-12-07T00:10:57;14.60;;;7.00;;
12042;SDS011;6082;49.306;12.862;2023-12-07T00:13:22;13.83;;;6.57;;
12042;SDS011;6082;49.306;12.862;2023-12-07T00:15:48;16.77;;;7.50;;
12042;SDS011;6082;49.306;12.862;2023-12-07T00:18:14;17.30;;;7.07;;
12042;SDS011;6082;49.306;12.862;2023-12-07T00:20:40;14.03;;;7.17;;
12042;SDS011;6082;49.306;12.862;2023-12-07T00:23:05;16.80;;;8.03;;
12042;SDS011;6082;49.306;12.862;2023-12-07T00:25:31;15.57;;;7.97;;
12042;SDS011;6082;49.306;12.862;2023-12-07T00:27:57;13.17;;;6.70;;
12042;SDS011;6082;49.306;12.862;2023-12-07T00:30:22;13.50;;;7.37;;
12042;SDS011;6082;49.306;12.862;2023-12-07T00:32:48;14.50;;;7.57;;
12042;SDS011;6082;49.306;12.862;2023-12-07T00:35:14;12.63;;;6.97;;
12042;SDS011;6082;49.306;12.862;2023-12-07T00:37:41;13.03;;;7.10;;
12042;SDS011;6082;49.306;12.862;2023-12-07T00:40:07;14.50;;;6.87;;
12042;SDS011;6082;49.306;12.862;2023-12-07T00:42:33;17.13;;;8.30;;
12042;SDS011;6082;49.306;12.862;2023-12-07T00:44:59;15.67;;;7.50;;
12042;SDS011;6082;49.306;12.862;2023-12-07T00:47:25;14.50;;;6.27;;
12042;SDS011;6082;49.306;12.862;2023-12-07T00:49:51;12.33;;;7.07;;
12042;SDS011;6082;49.306;12.862;2023-12-07T00:52:17;11.97;;;6.47;;
12042;SDS011;6082;49.306;12.862;2023-12-07T00:54:43;13.23;;;6.73;;
12042;SDS011;6082;49.306;12.862;2023-12-07T00:57:09;12.80;;;6.27;;
12042;SDS011;6082;49.306;12.862;2023-12-07T00:59:35;14.47;;;6.87;;
12042;SDS011;6082;49.306;12.862;2023-12-07T01:02:02;11.10;;;6.80;;
12042;SDS011;6082;49.306;12.862;2023-12-07T01:04:28;12.00;;;6.80;;
12042;SDS011;6082;49.306;12.862;2023-12-07T01:06:54;15.43;;;7.23;;
12042;SDS011;6082;49.306;12.862;2023-12-07T01:09:20;16.47;;;7.03;;
12042;SDS011;6082;49.306;12.862;2023-12-07T01:11:47;12.07;;;7.23;;
12042;SDS011;6082;49.306;12.862;2023-12-07T01:14:12;10.77;;;6.50;;
12042;SDS011;6082;49.306;12.862;2023-12-07T01:16:38;15.43;;;7.53;;
12042;SDS011;6082;49.306;12.862;2023-12-07T01:19:04;15.23;;;7.13;;
12042;SDS011;6082;49.306;12.862;2023-12-07T01:21:30;17.17;;;8.17;;
12042;SDS011;6082;49.306;12.862;2023-12-07T01:23:56;13.40;;;7.43;;
12042;SDS011;6082;49.306;12.862;2023-12-07T01:26:23;16.57;;;7.40;;
12042;SDS011;6082;49.306;12.862;2023-12-07T01:28:49;16.10;;;7.67;;
12042;SDS011;6082;49.306;12.862;2023-12-07T01:31:14;13.87;;;7.27;;
12042;SDS011;6082;49.306;12.862;2023-12-07T01:33:42;17.60;;;8.17;;
12042;SDS011;6082;49.306;12.862;2023-12-07T01:36:08;16.20;;;7.90;;
12042;SDS011;6082;49.306;12.862;2023-12-07T01:38:34;14.60;;;7.77;;
12042;SDS011;6082;49.306;12.862;2023-12-07T01:40:59;15.80;;;7.30;;
12042;SDS011;6082;49.306;12.862;2023-12-07T01:43:25;15.83;;;7.80;;
12042;SDS011;6082;49.306;12.862;2023-12-07T01:45:51;14.33;;;7.77;;
12042;SDS011;6082;49.306;12.862;2023-12-07T01:48:19;15.20;;;7.03;;
12042;SDS011;6082;49.306;12.862;2023-12-07T01:50:46;16.97;;;8.30;;
12042;SDS011;6082;49.306;12.862;2023-12-07T01:53:12;17.53;;;8.30;;
12042;SDS011;6082;49.306;12.862;2023-12-07T01:55:40;16.87;;;8.63;;
12042;SDS011;6082;49.306;12.862;2023-12-07T01:58:06;18.80;;;7.90;;
12042;SDS011;6082;49.306;12.862;2023-12-07T02:00:33;18.10;;;8.73;;
12042;SDS011;6082;49.306;12.862;2023-12-07T02:02:59;19.80;;;8.57;;
12042;SDS011;6082;49.306;12.862;2023-12-07T02:05:28;15.70;;;7.93;;
12042;SDS011;6082;49.306;12.862;2023-12-07T02:07:54;17.00;;;8.20;;
12042;SDS011;6082;49.306;12.862;2023-12-07T02:10:20;15.47;;;8.03;;
12042;SDS011;6082;49.306;12.862;2023-12-07T02:12:46;15.20;;;8.00;;
12042;SDS011;6082;49.306;12.862;2023-12-07T02:15:12;15.77;;;8.77;;
12042;SDS011;6082;49.306;12.862;2023-12-07T02:20:26;19.13;;;9.27;;
12042;SDS011;6082;49.306;12.862;2023-12-07T02:23:17;20.00;;;10.23;;
12042;SDS011;6082;49.306;12.862;2023-12-07T02:28:11;17.50;;;8.37;;
12042;SDS011;6082;49.306;12.862;2023-12-07T02:30:37;17.40;;;8.97;;
12042;SDS011;6082;49.306;12.862;2023-12-07T02:33:03;19.40;;;9.43;;
12042;SDS011;6082;49.306;12.862;2023-12-07T02:35:30;15.97;;;8.63;;
12042;SDS011;6082;49.306;12.862;2023-12-07T02:37:56;18.30;;;8.63;;
12042;SDS011;6082;49.306;12.862;2023-12-07T02:40:26;17.00;;;8.47;;
12042;SDS011;6082;49.306;12.862;2023-12-07T02:42:53;17.10;;;8.30;;
12042;SDS011;6082;49.306;12.862;2023-12-07T02:45:20;16.33;;;8.30;;
12042;SDS011;6082;49.306;12.862;2023-12-07T02:47:46;16.13;;;8.07;;
12042;SDS011;6082;49.306;12.862;2023-12-07T02:50:12;14.17;;;8.20;;
12042;SDS011;6082;49.306;12.862;2023-12-07T02:52:38;18.07;;;9.40;;
12042;SDS011;6082;49.306;12.862;2023-12-07T02:55:04;13.97;;;7.43;;
12042;SDS011;6082;49.306;12.862;2023-12-07T02:57:31;20.07;;;9.07;;
12042;SDS011;6082;49.306;12.862;2023-12-07T02:59:58;18.33;;;8.60;;
12042;SDS011;6082;49.306;12.862;2023-12-07T03:02:25;19.57;;;8.57;;
12042;SDS011;6082;49.306;12.862;2023-12-07T03:04:51;17.30;;;8.93;;
12042;SDS011;6082;49.306;12.862;2023-12-07T03:07:17;17.07;;;8.10;;
12042;SDS011;6082;49.306;12.862;2023-12-07T03:09:43;23.80;;;8.80;;
12042;SDS011;6082;49.306;12.862;2023-12-07T03:12:08;16.60;;;8.97;;
12042;SDS011;6082;49.306;12.862;2023-12-07T03:14:34;18.50;;;8.80;;
12042;SDS011;6082;49.306;12.862;2023-12-07T03:17:00;19.23;;;8.37;;
12042;SDS011;6082;49.306;12.862;2023-12-07T03:19:25;18.87;;;8.97;;
12042;SDS011;6082;49.306;12.862;2023-12-07T03:21:51;17.30;;;8.90;;
12042;SDS011;6082;49.306;12.862;2023-12-07T03:24:17;16.87;;;8.60;;
12042;SDS011;6082;49.306;12.862;2023-12-07T03:26:43;18.13;;;9.07;;
12042;SDS011;6082;49.306;12.862;2023-12-07T03:29:08;20.73;;;9.23;;
12042;SDS011;6082;49.306;12.862;2023-12-07T03:31:34;22.33;;;9.93;;
12042;SDS011;6082;49.306;12.862;2023-12-07T03:34:00;19.53;;;10.00;;
12042;SDS011;6082;49.306;12.862;2023-12-07T03:36:26;16.80;;;7.73;;
12042;SDS011;6082;49.306;12.862;2023-12-07T03:38:52;17.57;;;8.20;;
12042;SDS011;6082;49.306;12.862;2023-12-07T03:41:18;18.33;;;8.20;;
12042;SDS011;6082;49.306;12.862;2023-12-07T03:43:44;18.13;;;8.60;;
12042;SDS011;6082;49.306;12.862;2023-12-07T03:46:10;16.03;;;8.07;;
12042;SDS011;6082;49.306;12.862;2023-12-07T03:48:35;20.03;;;9.10;;
12042;SDS011;6082;49.306;12.862;2023-12-07T03:51:01;18.00;;;8.47;;
12042;SDS011;6082;49.306;12.862;2023-12-07T03:53:27;17.60;;;8.97;;
12042;SDS011;6082;49.306;12.862;2023-12-07T03:55:54;17.67;;;7.97;;
12042;SDS011;6082;49.306;12.862;2023-12-07T03:58:20;19.93;;;9.17;;
12042;SDS011;6082;49.306;12.862;2023-12-07T04:00:46;18.17;;;9.00;;
12042;SDS011;6082;49.306;12.862;2023-12-07T04:03:11;16.37;;;8.27;;
12042;SDS011;6082;49.306;12.862;2023-12-07T04:05:37;16.17;;;8.37;;
12042;SDS011;6082;49.306;12.862;2023-12-07T04:08:03;13.83;;;7.57;;
12042;SDS011;6082;49.306;12.862;2023-12-07T04:10:32;17.60;;;8.70;;
12042;SDS011;6082;49.306;12.862;2023-12-07T04:12:57;16.57;;;8.77;;
12042;SDS011;6082;49.306;12.862;2023-12-07T04:15:23;20.40;;;8.70;;
12042;SDS011;6082;49.306;12.862;2023-12-07T04:17:50;19.07;;;8.97;;
12042;SDS011;6082;49.306;12.862;2023-12-07T04:20:17;20.10;;;9.03;;
12042;SDS011;6082;49.306;12.862;2023-12-07T04:22:43;16.70;;;8.63;;
12042;SDS011;6082;49.306;12.862;2023-12-07T04:25:10;17.70;;;8.70;;
12042;SDS011;6082;49.306;12.862;2023-12-07T04:27:36;19.60;;;9.23;;
12042;SDS011;6082;49.306;12.862;2023-12-07T04:30:02;19.77;;;9.80;;
12042;SDS011;6082;49.306;12.862;2023-12-07T04:32:29;18.10;;;8.80;;
12042;SDS011;6082;49.306;12.862;2023-12-07T04:34:54;22.60;;;9.63;;
12042;SDS011;6082;49.306;12.862;2023-12-07T04:37:20;21.87;;;9.77;;
12042;SDS011;6082;49.306;12.862;2023-12-07T04:39:46;23.40;;;9.97;;
12042;SDS011;6082;49.306;12.862;2023-12-07T04:42:12;18.03;;;8.97;;
12042;SDS011;6082;49.306;12.862;2023-12-07T04:44:38;19.93;;;10.30;;
12042;SDS011;6082;49.306;12.862;2023-12-07T04:47:03;20.50;;;9.30;;
12042;SDS011;6082;49.306;12.862;2023-12-07T04:49:29;16.03;;;8.60;;
12042;SDS011;6082;49.306;12.862;2023-12-07T04:51:55;19.10;;;8.73;;
12042;SDS011;6082;49.306;12.862;2023-12-07T04:54:21;21.03;;;9.60;;
12042;SDS011;6082;49.306;12.862;2023-12-07T04:56:46;20.87;;;9.10;;
12042;SDS011;6082;49.306;12.862;2023-12-07T04:59:12;14.13;;;8.20;;
12042;SDS011;6082;49.306;12.862;2023-12-07T05:01:38;17.37;;;8.47;;
12042;SDS011;6082;49.306;12.862;2023-12-07T05:04:04;19.40;;;8.57;;
12042;SDS011;6082;49.306;12.862;2023-12-07T05:06:34;17.83;;;8.97;;
12042;SDS011;6082;49.306;12.862;2023-12-07T05:09:00;17.97;;;8.87;;
12042;SDS011;6082;49.306;12.862;2023-12-07T05:11:26;19.47;;;9.03;;
12042;SDS011;6082;49.306;12.862;2023-12-07T05:13:51;19.53;;;8.80;;
12042;SDS011;6082;49.306;12.862;2023-12-07T05:16:17;16.03;;;8.40;;
12042;SDS011;6082;49.306;12.862;2023-12-07T05:18:43;20.27;;;8.73;;
12042;SDS011;6082;49.306;12.862;2023-12-07T05:21:09;19.57;;;8.57;;
12042;SDS011;6082;49.306;12.862;2023-12-07T05:23:35;19.43;;;9.17;;
12042;SDS011;6082;49.306;12.862;2023-12-07T05:26:00;17.77;;;9.10;;
12042;SDS011;6082;49.306;12.862;2023-12-07T05:28:26;18.63;;;8.10;;
12042;SDS011;6082;49.306;12.862;2023-12-07T05:30:52;17.80;;;8.17;;
12042;SDS011;6082;49.306;12.862;2023-12-07T05:33:18;20.47;;;9.47;;
12042;SDS011;6082;49.306;12.862;2023-12-07T05:35:44;19.33;;;8.00;;
12042;SDS011;6082;49.306;12.862;2023-12-07T05:38:11;22.00;;;9.40;;
12042;SDS011;6082;49.306;12.862;2023-12-07T05:40:37;18.77;;;8.70;;
12042;SDS011;6082;49.306;12.862;2023-12-07T05:43:02;16.03;;;8.43;;
12042;SDS011;6082;49.306;12.862;2023-12-07T05:45:29;19.07;;;8.87;;
12042;SDS011;6082;49.306;12.862;2023-12-07T05:47:55;17.40;;;8.00;;
12042;SDS011;6082;49.306;12.862;2023-12-07T05:50:21;16.43;;;8.50;;
12042;SDS011;6082;49.306;12.862;2023-12-07T05:52:47;19.67;;;9.00;;
12042;SDS011;6082;49.306;12.862;2023-12-07T05:55:13;19.80;;;10.70;;
12042;SDS011;6082;49.306;12.862;2023-12-07T05:57:41;17.30;;;8.37;;
12042;SDS011;6082;49.306;12.862;2023-12-07T06:00:10;16.43;;;8.90;;
12042;SDS011;6082;49.306;12.862;2023-12-07T06:02:37;16.37;;;8.83;;
12042;SDS011;6082;49.306;12.862;2023-12-07T06:05:03;18.40;;;8.27;;
12042;SDS011;6082;49.306;12.862;2023-12-07T06:07:30;20.10;;;9.33;;
12042;SDS011;6082;49.306;12.862;2023-12-07T06:09:56;21.80;;;9.40;;
12042;SDS011;6082;49.306;12.862;2023-12-07T06:12:21;18.50;;;9.00;;
12042;SDS011;6082;49.306;12.862;2023-12-07T06:14:47;20.13;;;8.87;;
12042;SDS011;6082;49.306;12.862;2023-12-07T06:17:16;19.90;;;8.57;;
12042;SDS011;6082;49.306;12.862;2023-12-07T06:19:42;17.77;;;9.20;;
12042;SDS011;6082;49.306;12.862;2023-12-07T06:22:08;18.67;;;8.40;;
12042;SDS011;6082;49.306;12.862;2023-12-07T06:24:34;16.63;;;7.80;;
12042;SDS011;6082;49.306;12.862;2023-12-07T06:27:01;18.53;;;8.93;;
12042;SDS011;6082;49.306;12.862;2023-12-07T06:29:27;18.83;;;8.77;;
12042;SDS011;6082;49.306;12.862;2023-12-07T06:31:54;18.97;;;9.33;;
12042;SDS011;6082;49.306;12.862;2023-12-07T06:34:20;15.90;;;8.87;;
12042;SDS011;6082;49.306;12.862;2023-12-07T06:36:45;16.17;;;8.43;;
12042;SDS011;6082;49.306;12.862;2023-12-07T06:39:12;17.97;;;8.77;;
12042;SDS011;6082;49.306;12.862;2023-12-07T06:41:39;17.17;;;9.13;;
12042;SDS011;6082;49.306;12.862;2023-12-07T06:44:04;18.77;;;8.63;;
12042;SDS011;6082;49.306;12.862;2023-12-07T06:46:31;18.30;;;8.53;;
12042;SDS011;6082;49.306;12.862;2023-12-07T06:48:57;16.07;;;8.20;;
12042;SDS011;6082;49.306;12.862;2023-12-07T06:51:22;20.90;;;9.23;;
12042;SDS011;6082;49.306;12.862;2023-12-07T06:53:48;23.53;;;10.87;;
12042;SDS011;6082;49.306;12.862;2023-12-07T06:56:14;18.77;;;9.87;;
12042;SDS011;6082;49.306;12.862;2023-12-07T06:58:40;23.27;;;10.27;;
12042;SDS011;6082;49.306;12.862;2023-12-07T07:01:05;18.40;;;8.63;;
12042;SDS011;6082;49.306;12.862;2023-12-07T07:03:31;18.93;;;8.83;;
12042;SDS011;6082;49.306;12.862;2023-12-07T07:05:57;23.93;;;9.90;;
12042;SDS011;6082;49.306;12.862;2023-12-07T07:08:24;16.23;;;8.97;;
12042;SDS011;6082;49.306;12.862;2023-12-07T07:10:50;18.27;;;9.53;;
12042;SDS011;6082;49.306;12.862;2023-12-07T07:13:16;21.13;;;9.07;;
12042;SDS011;6082;49.306;12.862;2023-12-07T07:15:42;22.70;;;9.97;;
12042;SDS011;6082;49.306;12.862;2023-12-07T07:18:11;21.03;;;9.43;;
12042;SDS011;6082;49.306;12.862;2023-12-07T07:20:37;18.17;;;10.40;;
12042;SDS011;6082;49.306;12.862;2023-12-07T07:23:03;20.90;;;10.00;;
12042;SDS011;6082;49.306;12.862;2023-12-07T07:25:28;20.73;;;10.00;;
12042;SDS011;6082;49.306;12.862;2023-12-07T07:27:54;23.07;;;11.63;;
12042;SDS011;6082;49.306;12.862;2023-12-07T07:30:23;20.20;;;9.90;;
12042;SDS011;6082;49.306;12.862;2023-12-07T07:32:49;22.83;;;9.63;;
12042;SDS011;6082;49.306;12.862;2023-12-07T07:35:15;22.37;;;11.20;;
12042;SDS011;6082;49.306;12.862;2023-12-07T07:37:41;23.60;;;11.57;;
12042;SDS011;6082;49.306;12.862;2023-12-07T07:40:07;27.40;;;12.17;;
12042;SDS011;6082;49.306;12.862;2023-12-07T07:42:36;29.10;;;13.63;;
12042;SDS011;6082;49.306;12.862;2023-12-07T07:45:04;32.47;;;14.20;;
12042;SDS011;6082;49.306;12.862;2023-12-07T07:47:31;32.97;;;14.03;;
12042;SDS011;6082;49.306;12.862;2023-12-07T07:49:57;30.97;;;13.77;;
12042;SDS011;6082;49.306;12.862;2023-12-07T07:52:23;24.20;;;11.97;;
12042;SDS011;6082;49.306;12.862;2023-12-07T07:54:49;19.33;;;9.17;;
12042;SDS011;6082;49.306;12.862;2023-12-07T07:57:15;17.73;;;10.07;;
12042;SDS011;6082;49.306;12.862;2023-12-07T07:59:41;20.00;;;8.67;;
12042;SDS011;6082;49.306;12.862;2023-12-07T08:02:06;18.47;;;9.50;;
12042;SDS011;6082;49.306;12.862;2023-12-07T08:04:32;25.90;;;11.87;;
12042;SDS011;6082;49.306;12.862;2023-12-07T08:06:58;21.10;;;10.43;;
12042;SDS011;6082;49.306;12.862;2023-12-07T08:09:23;19.17;;;9.87;;
12042;SDS011;6082;49.306;12.862;2023-12-07T08:11:49;21.50;;;10.20;;
12042;SDS011;6082;49.306;12.862;2023-12-07T08:14:15;19.97;;;9.93;;
12042;SDS011;6082;49.306;12.862;2023-12-07T08:16:46;18.10;;;8.87;;
12042;SDS011;6082;49.306;12.862;2023-12-07T08:19:12;16.87;;;8.63;;
12042;SDS011;6082;49.306;12.862;2023-12-07T08:21:38;18.83;;;9.17;;
12042;SDS011;6082;49.306;12.862;2023-12-07T08:24:04;20.07;;;8.67;;
12042;SDS011;6082;49.306;12.862;2023-12-07T08:26:33;18.83;;;9.87;;
12042;SDS011;6082;49.306;12.862;2023-12-07T08:28:59;18.60;;;9.93;;
12042;SDS011;6082;49.306;12.862;2023-12-07T08:31:25;21.27;;;9.63;;
12042;SDS011;6082;49.306;12.862;2023-12-07T08:33:50;17.63;;;9.40;;
12042;SDS011;6082;49.306;12.862;2023-12-07T08:36:16;17.10;;;9.27;;
12042;SDS011;6082;49.306;12.862;2023-12-07T08:38:42;20.37;;;9.23;;
12042;SDS011;6082;49.306;12.862;2023-12-07T08:41:08;17.63;;;9.20;;
12042;SDS011;6082;49.306;12.862;2023-12-07T08:43:34;21.97;;;10.67;;
12042;SDS011;6082;49.306;12.862;2023-12-07T08:45:59;19.20;;;8.83;;
12042;SDS011;6082;49.306;12.862;2023-12-07T08:48:25;19.23;;;9.57;;
12042;SDS011;6082;49.306;12.862;2023-12-07T08:50:51;16.87;;;9.07;;
12042;SDS011;6082;49.306;12.862;2023-12-07T08:53:17;19.27;;;9.07;;
12042;SDS011;6082;49.306;12.862;2023-12-07T08:55:43;18.00;;;9.60;;
12042;SDS011;6082;49.306;12.862;2023-12-07T08:58:08;20.13;;;9.80;;
12042;SDS011;6082;49.306;12.862;2023-12-07T09:00:35;21.73;;;9.77;;
12042;SDS011;6082;49.306;12.862;2023-12-07T09:03:03;20.73;;;9.30;;
12042;SDS011;6082;49.306;12.862;2023-12-07T09:05:29;22.10;;;9.80;;
12042;SDS011;6082;49.306;12.862;2023-12-07T09:07:55;21.60;;;9.40;;
12042;SDS011;6082;49.306;12.862;2023-12-07T09:10:22;19.30;;;8.87;;
12042;SDS011;6082;49.306;12.862;2023-12-07T09:12:48;21.07;;;9.50;;
12042;SDS011;6082;49.306;12.862;2023-12-07T09:15:13;19.17;;;9.67;;
12042;SDS011;6082;49.306;12.862;2023-12-07T09:17:39;22.40;;;10.20;;
12042;SDS011;6082;49.306;12.862;2023-12-07T09:20:08;22.60;;;9.70;;
12042;SDS011;6082;49.306;12.862;2023-12-07T09:22:42;20.27;;;9.47;;
12042;SDS011;6082;49.306;12.862;2023-12-07T09:25:09;20.47;;;9.70;;
12042;SDS011;6082;49.306;12.862;2023-12-07T09:27:36;19.43;;;8.77;;
12042;SDS011;6082;49.306;12.862;2023-12-07T09:30:04;20.33;;;10.50;;
12042;SDS011;6082;49.306;12.862;2023-12-07T09:32:42;20.90;;;9.87;;
12042;SDS011;6082;49.306;12.862;2023-12-07T09:35:08;24.53;;;10.90;;
12042;SDS011;6082;49.306;12.862;2023-12-07T09:37:44;27.07;;;12.87;;
12042;SDS011;6082;49.306;12.862;2023-12-07T09:40:17;20.63;;;9.90;;
12042;SDS011;6082;49.306;12.862;2023-12-07T09:42:45;26.20;;;12.40;;
12042;SDS011;6082;49.306;12.862;2023-12-07T09:45:11;26.30;;;12.07;;
12042;SDS011;6082;49.306;12.862;2023-12-07T09:47:39;19.40;;;9.93;;
12042;SDS011;6082;49.306;12.862;2023-12-07T09:50:07;19.53;;;9.93;;
12042;SDS011;6082;49.306;12.862;2023-12-07T09:52:34;19.07;;;9.57;;
12042;SDS011;6082;49.306;12.862;2023-12-07T09:55:03;22.80;;;10.13;;
12042;SDS011;6082;49.306;12.862;2023-12-07T09:57:30;25.47;;;10.40;;
12042;SDS011;6082;49.306;12.862;2023-12-07T09:59:56;18.10;;;8.97;;
12042;SDS011;6082;49.306;12.862;2023-12-07T10:02:22;14.90;;;8.07;;
12042;SDS011;6082;49.306;12.862;2023-12-07T10:04:48;20.97;;;9.63;;
12042;SDS011;6082;49.306;12.862;2023-12-07T10:07:33;18.60;;;9.43;;
12042;SDS011;6082;49.306;12.862;2023-12-07T10:10:00;17.30;;;8.83;;
12042;SDS011;6082;49.306;12.862;2023-12-07T10:12:27;13.93;;;8.10;;
12042;SDS011;6082;49.306;12.862;2023-12-07T10:14:52;19.93;;;10.00;;
12042;SDS011;6082;49.306;12.862;2023-12-07T10:17:18;17.60;;;8.27;;
12042;SDS011;6082;49.306;12.862;2023-12-07T10:19:44;17.40;;;8.23;;
12042;SDS011;6082;49.306;12.862;2023-12-07T10:22:13;19.97;;;8.93;;
12042;SDS011;6082;49.306;12.862;2023-12-07T10:24:42;17.97;;;9.03;;
12042;SDS011;6082;49.306;12.862;2023-12-07T10:27:08;25.27;;;11.70;;
12042;SDS011;6082;49.306;12.862;2023-12-07T10:29:37;19.17;;;9.40;;
12042;SDS011;6082;49.306;12.862;2023-12-07T10:32:03;16.93;;;8.77;;
12042;SDS011;6082;49.306;12.862;2023-12-07T10:34:30;16.33;;;8.80;;
12042;SDS011;6082;49.306;12.862;2023-12-07T10:36:59;17.57;;;9.07;;
12042;SDS011;6082;49.306;12.862;2023-12-07T10:39:25;18.60;;;9.23;;
12042;SDS011;6082;49.306;12.862;2023-12-07T10:41:52;15.63;;;9.40;;
12042;SDS011;6082;49.306;12.862;2023-12-07T10:44:22;16.50;;;8.77;;
12042;SDS011;6082;49.306;12.862;2023-12-07T10:46:51;15.13;;;8.33;;
12042;SDS011;6082;49.306;12.862;2023-12-07T10:49:19;17.13;;;9.23;;
12042;SDS011;6082;49.306;12.862;2023-12-07T10:51:53;14.53;;;8.17;;
12042;SDS011;6082;49.306;12.862;2023-12-07T10:54:22;16.17;;;7.83;;
12042;SDS011;6082;49.306;12.862;2023-12-07T10:56:50;14.70;;;7.10;;
12042;SDS011;6082;49.306;12.862;2023-12-07T10:59:16;16.43;;;8.37;;
12042;SDS011;6082;49.306;12.862;2023-12-07T11:01:43;16.93;;;8.43;;
12042;SDS011;6082;49.306;12.862;2023-12-07T11:04:13;17.10;;;8.67;;
12042;SDS011;6082;49.306;12.862;2023-12-07T11:06:42;24.83;;;11.20;;
12042;SDS011;6082;49.306;12.862;2023-12-07T11:09:17;20.67;;;10.53;;
12042;SDS011;6082;49.306;12.862;2023-12-07T11:14:22;47.23;;;19.83;;
12042;SDS011;6082;49.306;12.862;2023-12-07T11:16:48;17.87;;;10.53;;
12042;SDS011;6082;49.306;12.862;2023-12-07T11:19:56;16.37;;;8.70;;
12042;SDS011;6082;49.306;12.862;2023-12-07T11:22:09;16.50;;;10.00;;
12042;SDS011;6082;49.306;12.862;2023-12-07T11:24:37;14.77;;;8.73;;
12042;SDS011;6082;49.306;12.862;2023-12-07T11:27:03;17.17;;;8.13;;
12042;SDS011;6082;49.306;12.862;2023-12-07T11:29:29;12.90;;;8.10;;
12042;SDS011;6082;49.306;12.862;2023-12-07T11:32:05;17.10;;;9.07;;
12042;SDS011;6082;49.306;12.862;2023-12-07T11:37:01;16.10;;;9.13;;
12042;SDS011;6082;49.306;12.862;2023-12-07T11:39:27;15.13;;;7.93;;
12042;SDS011;6082;49.306;12.862;2023-12-07T11:41:54;15.30;;;8.57;;
12042;SDS011;6082;49.306;12.862;2023-12-07T11:44:32;16.50;;;8.70;;
12042;SDS011;6082;49.306;12.862;2023-12-07T11:46:59;11.07;;;6.87;;
12042;SDS011;6082;49.306;12.862;2023-12-07T11:49:25;12.77;;;7.43;;
12042;SDS011;6082;49.306;12.862;2023-12-07T11:51:52;14.00;;;7.60;;
12042;SDS011;6082;49.306;12.862;2023-12-07T11:54:18;12.53;;;6.63;;
12042;SDS011;6082;49.306;12.862;2023-12-07T11:56:44;11.93;;;7.87;;
12042;SDS011;6082;49.306;12.862;2023-12-07T11:59:09;13.53;;;7.77;;
12042;SDS011;6082;49.306;12.862;2023-12-07T12:01:35;12.23;;;7.10;;
12042;SDS011;6082;49.306;12.862;2023-12-07T12:04:01;14.17;;;7.07;;
12042;SDS011;6082;49.306;12.862;2023-12-07T12:06:29;13.77;;;7.23;;
12042;SDS011;6082;49.306;12.862;2023-12-07T12:08:55;13.80;;;7.40;;
12042;SDS011;6082;49.306;12.862;2023-12-07T12:11:22;11.70;;;7.23;;
12042;SDS011;6082;49.306;12.862;2023-12-07T12:13:47;15.03;;;7.90;;
12042;SDS011;6082;49.306;12.862;2023-12-07T12:16:14;16.80;;;8.73;;
12042;SDS011;6082;49.306;12.862;2023-12-07T12:18:40;15.40;;;8.40;;
12042;SDS011;6082;49.306;12.862;2023-12-07T12:21:09;12.50;;;7.63;;
12042;SDS011;6082;49.306;12.862;2023-12-07T12:23:35;14.20;;;8.23;;
12042;SDS011;6082;49.306;12.862;2023-12-07T12:26:01;13.73;;;7.07;;
12042;SDS011;6082;49.306;12.862;2023-12-07T12:28:28;15.00;;;8.30;;
12042;SDS011;6082;49.306;12.862;2023-12-07T12:30:54;14.43;;;8.53;;
12042;SDS011;6082;49.306;12.862;2023-12-07T12:33:20;14.13;;;8.23;;
12042;SDS011;6082;49.306;12.862;2023-12-07T12:35:46;14.50;;;7.30;;
12042;SDS011;6082;49.306;12.862;2023-12-07T12:38:24;13.57;;;8.30;;
12042;SDS011;6082;49.306;12.862;2023-12-07T12:40:50;11.97;;;7.43;;
12042;SDS011;6082;49.306;12.862;2023-12-07T12:43:16;16.60;;;7.70;;
12042;SDS011;6082;49.306;12.862;2023-12-07T12:45:42;18.17;;;10.53;;
12042;SDS011;6082;49.306;12.862;2023-12-07T12:48:08;14.90;;;8.83;;
12042;SDS011;6082;49.306;12.862;2023-12-07T12:50:37;15.67;;;8.87;;
12042;SDS011;6082;49.306;12.862;2023-12-07T12:53:05;16.17;;;8.33;;
12042;SDS011;6082;49.306;12.862;2023-12-07T12:55:36;15.17;;;8.70;;
12042;SDS011;6082;49.306;12.862;2023-12-07T12:58:03;14.80;;;8.33;;
12042;SDS011;6082;49.306;12.862;2023-12-07T13:00:32;17.97;;;8.40;;
12042;SDS011;6082;49.306;12.862;2023-12-07T13:03:05;15.63;;;7.80;;
12042;SDS011;6082;49.306;12.862;2023-12-07T13:05:31;16.43;;;8.30;;
12042;SDS011;6082;49.306;12.862;2023-12-07T13:07:58;15.47;;;7.97;;
12042;SDS011;6082;49.306;12.862;2023-12-07T13:10:25;18.37;;;7.90;;
12042;SDS011;6082;49.306;12.862;2023-12-07T13:12:51;15.77;;;8.13;;
12042;SDS011;6082;49.306;12.862;2023-12-07T13:15:16;18.33;;;8.77;;
12042;SDS011;6082;49.306;12.862;2023-12-07T13:17:42;13.70;;;7.87;;
12042;SDS011;6082;49.306;12.862;2023-12-07T13:20:09;13.60;;;7.23;;
12042;SDS011;6082;49.306;12.862;2023-12-07T13:22:38;11.17;;;6.73;;
12042;SDS011;6082;49.306;12.862;2023-12-07T13:25:04;14.70;;;7.23;;
12042;SDS011;6082;49.306;12.862;2023-12-07T13:27:32;11.73;;;6.77;;
12042;SDS011;6082;49.306;12.862;2023-12-07T13:29:58;13.60;;;7.37;;
12042;SDS011;6082;49.306;12.862;2023-12-07T13:32:24;13.93;;;7.13;;
12042;SDS011;6082;49.306;12.862;2023-12-07T13:34:50;13.73;;;6.30;;
12042;SDS011;6082;49.306;12.862;2023-12-07T13:37:16;16.23;;;6.87;;
12042;SDS011;6082;49.306;12.862;2023-12-07T13:39:42;16.23;;;7.30;;
12042;SDS011;6082;49.306;12.862;2023-12-07T13:42:08;11.10;;;6.53;;
12042;SDS011;6082;49.306;12.862;2023-12-07T13:44:35;15.30;;;7.87;;
12042;SDS011;6082;49.306;12.862;2023-12-07T13:47:01;15.53;;;7.37;;
12042;SDS011;6082;49.306;12.862;2023-12-07T13:49:27;11.47;;;6.43;;
12042;SDS011;6082;49.306;12.862;2023-12-07T13:51:52;13.00;;;7.37;;
12042;SDS011;6082;49.306;12.862;2023-12-07T13:54:18;14.57;;;7.23;;
12042;SDS011;6082;49.306;12.862;2023-12-07T13:56:44;16.00;;;8.30;;
12042;SDS011;6082;49.306;12.862;2023-12-07T13:59:09;12.77;;;7.23;;
12042;SDS011;6082;49.306;12.862;2023-12-07T14:01:37;16.43;;;8.87;;
12042;SDS011;6082;49.306;12.862;2023-12-07T14:04:04;20.77;;;10.80;;
12042;SDS011;6082;49.306;12.862;2023-12-07T14:06:31;20.27;;;12.03;;
12042;SDS011;6082;49.306;12.862;2023-12-07T14:09:00;19.87;;;9.53;;
12042;SDS011;6082;49.306;12.862;2023-12-07T14:11:26;16.53;;;9.53;;
12042;SDS011;6082;49.306;12.862;2023-12-07T14:13:52;16.30;;;9.13;;
12042;SDS011;6082;49.306;12.862;2023-12-07T14:16:19;15.70;;;8.77;;
12042;SDS011;6082;49.306;12.862;2023-12-07T14:18:46;15.17;;;9.27;;
12042;SDS011;6082;49.306;12.862;2023-12-07T14:21:12;15.33;;;8.30;;
12042;SDS011;6082;49.306;12.862;2023-12-07T14:23:39;15.63;;;9.30;;
12042;SDS011;6082;49.306;12.862;2023-12-07T14:26:05;15.13;;;9.20;;
12042;SDS011;6082;49.306;12.862;2023-12-07T14:28:31;15.47;;;8.70;;
12042;SDS011;6082;49.306;12.862;2023-12-07T14:30:59;13.97;;;8.70;;
12042;SDS011;6082;49.306;12.862;2023-12-07T14:33:25;12.53;;;8.20;;
12042;SDS011;6082;49.306;12.862;2023-12-07T14:35:51;17.53;;;8.37;;
12042;SDS011;6082;49.306;12.862;2023-12-07T14:38:16;21.00;;;8.77;;
12042;SDS011;6082;49.306;12.862;2023-12-07T14:40:42;11.97;;;7.83;;